sensor_id;sensor_type;location;lat;lon;timestamp;P1;durP1;ratioP1;P2;durP2;ratioP2
20945;SDS011;10632;51.276;7.116;2023-11-21T00:00:35;3.38;;;1.40;;
20945;SDS011;10632;51.276;7.116;2023-11-21T00:03:01;2.33;;;0.73;;
20945;SDS011;10632;51.276;7.116;2023-11-21T00:05:29;2.50;;;0.98;;
20945;SDS011;10632;51.276;7.116;2023-11-21T00:07:56;3.22;;;1.20;;
20945;SDS011;10632;51.276;7.116;2023-11-21T00:10:24;2.33;;;0.82;;
20945;SDS011;10632;51.276;7.116;2023-11-21T00:12:51;3.92;;;1.52;;
20945;SDS011;10632;51.276;7.116;2023-11-21T00:15:20;2.95;;;1.13;;
20945;SDS011;10632;51.276;7.116;2023-11-21T00:17:46;2.28;;;0.93;;
20945;SDS011;10632;51.276;7.116;2023-11-21T00:20:13;3.13;;;1.00;;
20945;SDS011;10632;51.276;7.116;2023-11-21T00:22:41;4.30;;;1.40;;
20945;SDS011;10632;51.276;7.116;2023-11-21T00:25:08;3.05;;;0.73;;
20945;SDS011;10632;51.276;7.116;2023-11-21T00:27:36;4.40;;;1.20;;
20945;SDS011;10632;51.276;7.116;2023-11-21T00:30:04;3.30;;;1.35;;
20945;SDS011;10632;51.276;7.116;2023-11-21T00:32:32;2.60;;;0.90;;
20945;SDS011;10632;51.276;7.116;2023-11-21T00:34:59;2.65;;;1.00;;
20945;SDS011;10632;51.276;7.116;2023-11-21T00:37:26;3.92;;;1.27;;
20945;SDS011;10632;51.276;7.116;2023-11-21T00:39:53;3.20;;;1.23;;
20945;SDS011;10632;51.276;7.116;2023-11-21T00:42:20;2.85;;;0.68;;
20945;SDS011;10632;51.276;7.116;2023-11-21T00:44:51;3.05;;;1.13;;
20945;SDS011;10632;51.276;7.116;2023-11-21T00:47:18;6.95;;;1.13;;
20945;SDS011;10632;51.276;7.116;2023-11-21T00:49:45;1.88;;;1.02;;
20945;SDS011;10632;51.276;7.116;2023-11-21T00:52:12;4.57;;;1.00;;
20945;SDS011;10632;51.276;7.116;2023-11-21T00:54:38;4.18;;;1.50;;
20945;SDS011;10632;51.276;7.116;2023-11-21T00:57:05;5.57;;;1.10;;
20945;SDS011;10632;51.276;7.116;2023-11-21T00:59:33;3.75;;;1.23;;
20945;SDS011;10632;51.276;7.116;2023-11-21T01:02:02;4.85;;;1.60;;
20945;SDS011;10632;51.276;7.116;2023-11-21T01:04:31;3.22;;;1.33;;
20945;SDS011;10632;51.276;7.116;2023-11-21T01:06:58;4.28;;;1.27;;
20945;SDS011;10632;51.276;7.116;2023-11-21T01:09:25;2.83;;;1.15;;
20945;SDS011;10632;51.276;7.116;2023-11-21T01:11:53;4.93;;;0.95;;
20945;SDS011;10632;51.276;7.116;2023-11-21T01:14:20;5.57;;;0.82;;
20945;SDS011;10632;51.276;7.116;2023-11-21T01:16:47;4.40;;;1.33;;
20945;SDS011;10632;51.276;7.116;2023-11-21T01:19:15;3.42;;;1.20;;
20945;SDS011;10632;51.276;7.116;2023-11-21T01:21:42;4.65;;;1.38;;
20945;SDS011;10632;51.276;7.116;2023-11-21T01:24:09;3.33;;;1.30;;
20945;SDS011;10632;51.276;7.116;2023-11-21T01:26:36;5.63;;;1.73;;
20945;SDS011;10632;51.276;7.116;2023-11-21T01:29:03;2.85;;;1.13;;
20945;SDS011;10632;51.276;7.116;2023-11-21T01:31:30;3.75;;;1.35;;
20945;SDS011;10632;51.276;7.116;2023-11-21T01:33:57;8.65;;;1.27;;
20945;SDS011;10632;51.276;7.116;2023-11-21T01:36:30;6.25;;;1.20;;
20945;SDS011;10632;51.276;7.116;2023-11-21T01:38:58;5.88;;;2.00;;
20945;SDS011;10632;51.276;7.116;2023-11-21T01:41:25;6.38;;;1.60;;
20945;SDS011;10632;51.276;7.116;2023-11-21T01:43:53;6.38;;;2.22;;
20945;SDS011;10632;51.276;7.116;2023-11-21T01:46:20;6.88;;;1.90;;
20945;SDS011;10632;51.276;7.116;2023-11-21T01:48:48;4.22;;;1.63;;
20945;SDS011;10632;51.276;7.116;2023-11-21T01:51:15;8.63;;;2.20;;
20945;SDS011;10632;51.276;7.116;2023-11-21T01:53:45;6.10;;;1.67;;
20945;SDS011;10632;51.276;7.116;2023-11-21T01:56:12;5.97;;;1.83;;
20945;SDS011;10632;51.276;7.116;2023-11-21T01:58:42;3.88;;;1.33;;
20945;SDS011;10632;51.276;7.116;2023-11-21T02:03:59;5.97;;;2.08;;
20945;SDS011;10632;51.276;7.116;2023-11-21T02:06:29;3.60;;;1.45;;
20945;SDS011;10632;51.276;7.116;2023-11-21T02:09:01;8.55;;;2.15;;
20945;SDS011;10632;51.276;7.116;2023-11-21T02:11:32;7.85;;;2.28;;
20945;SDS011;10632;51.276;7.116;2023-11-21T02:16:27;5.75;;;1.83;;
20945;SDS011;10632;51.276;7.116;2023-11-21T02:18:56;23.42;;;2.58;;
20945;SDS011;10632;51.276;7.116;2023-11-21T02:21:24;7.47;;;2.08;;
20945;SDS011;10632;51.276;7.116;2023-11-21T02:23:55;11.52;;;2.28;;
20945;SDS011;10632;51.276;7.116;2023-11-21T02:26:23;7.68;;;2.50;;
20945;SDS011;10632;51.276;7.116;2023-11-21T02:28:55;9.30;;;2.72;;
20945;SDS011;10632;51.276;7.116;2023-11-21T02:31:23;11.85;;;2.60;;
20945;SDS011;10632;51.276;7.116;2023-11-21T02:33:50;7.47;;;2.33;;
20945;SDS011;10632;51.276;7.116;2023-11-21T02:38:47;5.72;;;1.98;;
20945;SDS011;10632;51.276;7.116;2023-11-21T02:41:16;8.00;;;2.30;;
20945;SDS011;10632;51.276;7.116;2023-11-21T02:48:53;9.73;;;2.78;;
20945;SDS011;10632;51.276;7.116;2023-11-21T02:51:24;6.35;;;2.00;;
20945;SDS011;10632;51.276;7.116;2023-11-21T02:56:39;6.65;;;2.42;;
20945;SDS011;10632;51.276;7.116;2023-11-21T02:59:06;10.02;;;2.00;;
20945;SDS011;10632;51.276;7.116;2023-11-21T03:04:11;5.20;;;1.67;;
20945;SDS011;10632;51.276;7.116;2023-11-21T03:09:18;7.03;;;2.05;;
20945;SDS011;10632;51.276;7.116;2023-11-21T03:11:46;11.63;;;2.08;;
20945;SDS011;10632;51.276;7.116;2023-11-21T03:14:14;13.85;;;3.05;;
20945;SDS011;10632;51.276;7.116;2023-11-21T03:16:41;7.55;;;2.58;;
20945;SDS011;10632;51.276;7.116;2023-11-21T03:19:10;11.10;;;2.80;;
20945;SDS011;10632;51.276;7.116;2023-11-21T03:21:37;17.40;;;3.05;;
20945;SDS011;10632;51.276;7.116;2023-11-21T03:24:04;12.30;;;3.13;;
20945;SDS011;10632;51.276;7.116;2023-11-21T03:26:32;9.32;;;2.80;;
20945;SDS011;10632;51.276;7.116;2023-11-21T03:29:00;6.40;;;2.47;;
20945;SDS011;10632;51.276;7.116;2023-11-21T03:31:28;9.70;;;3.15;;
20945;SDS011;10632;51.276;7.116;2023-11-21T03:33:55;11.55;;;2.75;;
20945;SDS011;10632;51.276;7.116;2023-11-21T03:36:22;16.23;;;3.28;;
20945;SDS011;10632;51.276;7.116;2023-11-21T03:38:50;12.52;;;2.47;;
20945;SDS011;10632;51.276;7.116;2023-11-21T03:41:18;8.38;;;2.58;;
20945;SDS011;10632;51.276;7.116;2023-11-21T03:43:46;6.55;;;2.10;;
20945;SDS011;10632;51.276;7.116;2023-11-21T03:49:42;8.23;;;2.78;;
20945;SDS011;10632;51.276;7.116;2023-11-21T03:52:09;11.88;;;2.92;;
20945;SDS011;10632;51.276;7.116;2023-11-21T03:54:42;8.65;;;3.08;;
20945;SDS011;10632;51.276;7.116;2023-11-21T03:57:13;8.10;;;2.45;;
20945;SDS011;10632;51.276;7.116;2023-11-21T03:59:42;13.70;;;3.15;;
20945;SDS011;10632;51.276;7.116;2023-11-21T04:02:09;10.13;;;2.30;;
20945;SDS011;10632;51.276;7.116;2023-11-21T04:04:36;9.68;;;3.15;;
20945;SDS011;10632;51.276;7.116;2023-11-21T04:07:05;7.50;;;2.13;;
20945;SDS011;10632;51.276;7.116;2023-11-21T04:09:32;6.25;;;2.25;;
20945;SDS011;10632;51.276;7.116;2023-11-21T04:11:59;7.00;;;2.22;;
20945;SDS011;10632;51.276;7.116;2023-11-21T04:14:26;8.57;;;2.20;;
20945;SDS011;10632;51.276;7.116;2023-11-21T04:16:53;8.85;;;2.47;;
20945;SDS011;10632;51.276;7.116;2023-11-21T04:19:21;9.45;;;2.60;;
20945;SDS011;10632;51.276;7.116;2023-11-21T04:21:50;7.10;;;2.40;;
20945;SDS011;10632;51.276;7.116;2023-11-21T04:24:21;10.75;;;2.75;;
20945;SDS011;10632;51.276;7.116;2023-11-21T04:26:51;6.82;;;2.63;;
20945;SDS011;10632;51.276;7.116;2023-11-21T04:29:18;6.05;;;2.08;;
20945;SDS011;10632;51.276;7.116;2023-11-21T04:31:45;6.07;;;2.13;;
20945;SDS011;10632;51.276;7.116;2023-11-21T04:34:14;7.32;;;2.08;;
20945;SDS011;10632;51.276;7.116;2023-11-21T04:36:40;8.85;;;2.20;;
20945;SDS011;10632;51.276;7.116;2023-11-21T04:39:07;6.78;;;2.03;;
20945;SDS011;10632;51.276;7.116;2023-11-21T04:41:35;6.95;;;1.92;;
20945;SDS011;10632;51.276;7.116;2023-11-21T04:44:04;7.38;;;2.13;;
20945;SDS011;10632;51.276;7.116;2023-11-21T04:46:31;5.60;;;1.73;;
20945;SDS011;10632;51.276;7.116;2023-11-21T04:49:00;4.97;;;1.45;;
20945;SDS011;10632;51.276;7.116;2023-11-21T04:51:28;4.68;;;1.67;;
20945;SDS011;10632;51.276;7.116;2023-11-21T04:53:55;8.90;;;1.88;;
20945;SDS011;10632;51.276;7.116;2023-11-21T04:56:22;4.97;;;1.67;;
20945;SDS011;10632;51.276;7.116;2023-11-21T04:58:51;5.80;;;1.67;;
20945;SDS011;10632;51.276;7.116;2023-11-21T05:01:17;6.30;;;2.20;;
20945;SDS011;10632;51.276;7.116;2023-11-21T05:03:44;6.63;;;1.65;;
20945;SDS011;10632;51.276;7.116;2023-11-21T05:06:12;7.03;;;1.52;;
20945;SDS011;10632;51.276;7.116;2023-11-21T05:08:39;7.15;;;1.60;;
20945;SDS011;10632;51.276;7.116;2023-11-21T05:11:07;5.22;;;1.55;;
20945;SDS011;10632;51.276;7.116;2023-11-21T05:13:36;4.45;;;1.73;;
20945;SDS011;10632;51.276;7.116;2023-11-21T05:16:05;5.82;;;1.90;;
20945;SDS011;10632;51.276;7.116;2023-11-21T05:18:33;5.63;;;1.70;;
20945;SDS011;10632;51.276;7.116;2023-11-21T05:20:59;3.78;;;1.42;;
20945;SDS011;10632;51.276;7.116;2023-11-21T05:23:27;5.80;;;1.45;;
20945;SDS011;10632;51.276;7.116;2023-11-21T05:25:54;4.93;;;1.35;;
20945;SDS011;10632;51.276;7.116;2023-11-21T05:28:24;4.75;;;1.38;;
20945;SDS011;10632;51.276;7.116;2023-11-21T05:31:01;3.05;;;1.48;;
20945;SDS011;10632;51.276;7.116;2023-11-21T05:33:30;2.88;;;1.27;;
20945;SDS011;10632;51.276;7.116;2023-11-21T05:35:58;9.35;;;1.38;;
20945;SDS011;10632;51.276;7.116;2023-11-21T05:38:25;5.20;;;1.70;;
20945;SDS011;10632;51.276;7.116;2023-11-21T05:40:52;6.30;;;1.60;;
20945;SDS011;10632;51.276;7.116;2023-11-21T05:43:19;8.55;;;1.55;;
20945;SDS011;10632;51.276;7.116;2023-11-21T05:45:46;3.53;;;1.20;;
20945;SDS011;10632;51.276;7.116;2023-11-21T05:48:13;4.55;;;1.27;;
20945;SDS011;10632;51.276;7.116;2023-11-21T05:50:42;5.05;;;1.13;;
20945;SDS011;10632;51.276;7.116;2023-11-21T05:53:09;7.97;;;1.92;;
20945;SDS011;10632;51.276;7.116;2023-11-21T05:55:36;6.65;;;1.33;;
20945;SDS011;10632;51.276;7.116;2023-11-21T05:58:04;4.07;;;1.48;;
20945;SDS011;10632;51.276;7.116;2023-11-21T06:00:32;7.60;;;1.27;;
20945;SDS011;10632;51.276;7.116;2023-11-21T06:02:59;4.20;;;1.60;;
20945;SDS011;10632;51.276;7.116;2023-11-21T06:05:26;5.65;;;1.63;;
20945;SDS011;10632;51.276;7.116;2023-11-21T06:07:55;7.43;;;1.50;;
20945;SDS011;10632;51.276;7.116;2023-11-21T06:10:23;5.10;;;1.73;;
20945;SDS011;10632;51.276;7.116;2023-11-21T06:12:51;5.32;;;1.88;;
20945;SDS011;10632;51.276;7.116;2023-11-21T06:15:21;4.40;;;1.80;;
20945;SDS011;10632;51.276;7.116;2023-11-21T06:17:48;5.97;;;1.42;;
20945;SDS011;10632;51.276;7.116;2023-11-21T06:20:17;5.88;;;1.80;;
20945;SDS011;10632;51.276;7.116;2023-11-21T06:22:47;6.15;;;2.03;;
20945;SDS011;10632;51.276;7.116;2023-11-21T06:25:16;7.47;;;1.98;;
20945;SDS011;10632;51.276;7.116;2023-11-21T06:27:46;5.72;;;1.30;;
20945;SDS011;10632;51.276;7.116;2023-11-21T06:30:14;7.10;;;1.77;;
20945;SDS011;10632;51.276;7.116;2023-11-21T06:32:42;4.82;;;1.38;;
20945;SDS011;10632;51.276;7.116;2023-11-21T06:35:10;4.63;;;1.55;;
20945;SDS011;10632;51.276;7.116;2023-11-21T06:37:41;7.03;;;2.00;;
20945;SDS011;10632;51.276;7.116;2023-11-21T06:40:12;7.25;;;1.55;;
20945;SDS011;10632;51.276;7.116;2023-11-21T06:42:42;8.98;;;1.75;;
20945;SDS011;10632;51.276;7.116;2023-11-21T06:45:12;5.25;;;1.80;;
20945;SDS011;10632;51.276;7.116;2023-11-21T06:47:40;7.15;;;1.45;;
20945;SDS011;10632;51.276;7.116;2023-11-21T06:50:09;5.55;;;1.35;;
20945;SDS011;10632;51.276;7.116;2023-11-21T06:52:36;4.82;;;1.52;;
20945;SDS011;10632;51.276;7.116;2023-11-21T06:55:04;5.00;;;1.55;;
20945;SDS011;10632;51.276;7.116;2023-11-21T06:57:33;4.63;;;1.98;;
20945;SDS011;10632;51.276;7.116;2023-11-21T07:00:01;8.30;;;1.63;;
20945;SDS011;10632;51.276;7.116;2023-11-21T07:02:29;10.48;;;2.45;;
20945;SDS011;10632;51.276;7.116;2023-11-21T07:04:56;6.55;;;2.25;;
20945;SDS011;10632;51.276;7.116;2023-11-21T07:07:23;18.17;;;2.95;;
20945;SDS011;10632;51.276;7.116;2023-11-21T07:09:50;10.38;;;3.65;;
20945;SDS011;10632;51.276;7.116;2023-11-21T07:12:17;13.73;;;3.92;;
20945;SDS011;10632;51.276;7.116;2023-11-21T07:14:48;11.00;;;2.72;;
20945;SDS011;10632;51.276;7.116;2023-11-21T07:17:16;10.93;;;2.95;;
20945;SDS011;10632;51.276;7.116;2023-11-21T07:19:44;12.43;;;2.92;;
20945;SDS011;10632;51.276;7.116;2023-11-21T07:22:11;8.00;;;2.80;;
20945;SDS011;10632;51.276;7.116;2023-11-21T07:24:39;12.80;;;3.10;;
20945;SDS011;10632;51.276;7.116;2023-11-21T07:27:05;8.02;;;2.40;;
20945;SDS011;10632;51.276;7.116;2023-11-21T07:29:32;12.85;;;2.55;;
20945;SDS011;10632;51.276;7.116;2023-11-21T07:31:59;7.50;;;2.30;;
20945;SDS011;10632;51.276;7.116;2023-11-21T07:34:28;7.80;;;3.00;;
20945;SDS011;10632;51.276;7.116;2023-11-21T07:36:55;13.43;;;3.20;;
20945;SDS011;10632;51.276;7.116;2023-11-21T07:39:21;17.83;;;3.55;;
20945;SDS011;10632;51.276;7.116;2023-11-21T07:41:49;8.38;;;2.75;;
20945;SDS011;10632;51.276;7.116;2023-11-21T07:44:16;9.57;;;2.90;;
20945;SDS011;10632;51.276;7.116;2023-11-21T07:46:44;12.93;;;3.10;;
20945;SDS011;10632;51.276;7.116;2023-11-21T07:49:14;10.98;;;3.17;;
20945;SDS011;10632;51.276;7.116;2023-11-21T07:51:47;12.93;;;3.30;;
20945;SDS011;10632;51.276;7.116;2023-11-21T07:54:16;12.38;;;2.88;;
20945;SDS011;10632;51.276;7.116;2023-11-21T07:56:43;11.05;;;3.35;;
20945;SDS011;10632;51.276;7.116;2023-11-21T07:59:10;11.32;;;3.08;;
20945;SDS011;10632;51.276;7.116;2023-11-21T08:01:37;11.20;;;3.40;;
20945;SDS011;10632;51.276;7.116;2023-11-21T08:04:05;9.45;;;2.53;;
20945;SDS011;10632;51.276;7.116;2023-11-21T08:06:33;10.00;;;3.15;;
20945;SDS011;10632;51.276;7.116;2023-11-21T08:09:01;8.57;;;2.22;;
20945;SDS011;10632;51.276;7.116;2023-11-21T08:11:28;15.07;;;2.85;;
20945;SDS011;10632;51.276;7.116;2023-11-21T08:13:57;12.10;;;2.83;;
20945;SDS011;10632;51.276;7.116;2023-11-21T08:16:24;12.43;;;3.08;;
20945;SDS011;10632;51.276;7.116;2023-11-21T08:18:52;8.40;;;2.22;;
20945;SDS011;10632;51.276;7.116;2023-11-21T08:21:19;12.50;;;2.90;;
20945;SDS011;10632;51.276;7.116;2023-11-21T08:23:48;8.85;;;2.65;;
20945;SDS011;10632;51.276;7.116;2023-11-21T08:26:20;16.45;;;3.63;;
20945;SDS011;10632;51.276;7.116;2023-11-21T08:28:47;24.73;;;4.68;;
20945;SDS011;10632;51.276;7.116;2023-11-21T08:31:14;11.20;;;2.95;;
20945;SDS011;10632;51.276;7.116;2023-11-21T08:33:41;17.55;;;3.55;;
20945;SDS011;10632;51.276;7.116;2023-11-21T08:36:09;16.73;;;4.25;;
20945;SDS011;10632;51.276;7.116;2023-11-21T08:38:37;26.60;;;4.78;;
20945;SDS011;10632;51.276;7.116;2023-11-21T08:41:04;22.73;;;4.90;;
20945;SDS011;10632;51.276;7.116;2023-11-21T08:43:35;23.00;;;5.47;;
20945;SDS011;10632;51.276;7.116;2023-11-21T08:46:04;19.15;;;4.55;;
20945;SDS011;10632;51.276;7.116;2023-11-21T08:48:32;13.93;;;4.05;;
20945;SDS011;10632;51.276;7.116;2023-11-21T08:50:58;16.90;;;4.57;;
20945;SDS011;10632;51.276;7.116;2023-11-21T08:53:25;20.85;;;4.97;;
20945;SDS011;10632;51.276;7.116;2023-11-21T08:55:52;18.75;;;3.92;;
20945;SDS011;10632;51.276;7.116;2023-11-21T08:58:20;18.25;;;4.28;;
20945;SDS011;10632;51.276;7.116;2023-11-21T09:00:48;16.52;;;3.83;;
20945;SDS011;10632;51.276;7.116;2023-11-21T09:03:15;13.80;;;3.85;;
20945;SDS011;10632;51.276;7.116;2023-11-21T09:05:42;13.43;;;3.40;;
20945;SDS011;10632;51.276;7.116;2023-11-21T09:08:09;9.55;;;2.60;;
20945;SDS011;10632;51.276;7.116;2023-11-21T09:10:36;9.80;;;2.88;;
20945;SDS011;10632;51.276;7.116;2023-11-21T09:13:04;11.10;;;2.92;;
20945;SDS011;10632;51.276;7.116;2023-11-21T09:15:34;9.00;;;2.55;;
20945;SDS011;10632;51.276;7.116;2023-11-21T09:18:02;16.45;;;3.97;;
20945;SDS011;10632;51.276;7.116;2023-11-21T09:20:30;11.57;;;2.97;;
20945;SDS011;10632;51.276;7.116;2023-11-21T09:22:57;15.65;;;4.20;;
20945;SDS011;10632;51.276;7.116;2023-11-21T09:25:23;12.13;;;3.42;;
20945;SDS011;10632;51.276;7.116;2023-11-21T09:27:50;11.98;;;3.20;;
20945;SDS011;10632;51.276;7.116;2023-11-21T09:30:17;11.02;;;2.92;;
20945;SDS011;10632;51.276;7.116;2023-11-21T09:32:45;12.45;;;3.22;;
20945;SDS011;10632;51.276;7.116;2023-11-21T09:35:13;12.10;;;2.95;;
20945;SDS011;10632;51.276;7.116;2023-11-21T09:37:42;19.25;;;3.78;;
20945;SDS011;10632;51.276;7.116;2023-11-21T09:40:11;14.48;;;4.13;;
20945;SDS011;10632;51.276;7.116;2023-11-21T09:42:43;18.50;;;3.58;;
20945;SDS011;10632;51.276;7.116;2023-11-21T09:45:17;18.00;;;3.90;;
20945;SDS011;10632;51.276;7.116;2023-11-21T09:47:50;15.15;;;3.45;;
20945;SDS011;10632;51.276;7.116;2023-11-21T09:50:21;17.17;;;4.10;;
20945;SDS011;10632;51.276;7.116;2023-11-21T09:52:53;22.27;;;5.20;;
20945;SDS011;10632;51.276;7.116;2023-11-21T09:55:24;17.48;;;4.57;;
20945;SDS011;10632;51.276;7.116;2023-11-21T09:57:55;14.80;;;3.33;;
20945;SDS011;10632;51.276;7.116;2023-11-21T10:00:23;13.95;;;3.67;;
20945;SDS011;10632;51.276;7.116;2023-11-21T10:02:50;16.88;;;4.05;;
20945;SDS011;10632;51.276;7.116;2023-11-21T10:05:18;19.67;;;3.40;;
20945;SDS011;10632;51.276;7.116;2023-11-21T10:07:48;15.45;;;3.28;;
20945;SDS011;10632;51.276;7.116;2023-11-21T10:10:18;14.75;;;4.07;;
20945;SDS011;10632;51.276;7.116;2023-11-21T10:12:48;22.88;;;4.10;;
20945;SDS011;10632;51.276;7.116;2023-11-21T10:15:18;16.35;;;3.83;;
20945;SDS011;10632;51.276;7.116;2023-11-21T10:17:48;16.60;;;4.38;;
20945;SDS011;10632;51.276;7.116;2023-11-21T10:20:18;19.63;;;4.90;;
20945;SDS011;10632;51.276;7.116;2023-11-21T10:22:45;14.30;;;4.05;;
20945;SDS011;10632;51.276;7.116;2023-11-21T10:25:14;16.98;;;3.80;;
20945;SDS011;10632;51.276;7.116;2023-11-21T10:27:42;15.35;;;3.90;;
20945;SDS011;10632;51.276;7.116;2023-11-21T10:30:09;13.77;;;3.28;;
20945;SDS011;10632;51.276;7.116;2023-11-21T10:32:37;17.75;;;3.25;;
20945;SDS011;10632;51.276;7.116;2023-11-21T10:35:06;17.77;;;4.13;;
20945;SDS011;10632;51.276;7.116;2023-11-21T10:37:36;16.15;;;4.65;;
20945;SDS011;10632;51.276;7.116;2023-11-21T10:40:05;13.48;;;3.65;;
20945;SDS011;10632;51.276;7.116;2023-11-21T10:42:34;26.27;;;4.95;;
20945;SDS011;10632;51.276;7.116;2023-11-21T10:45:01;12.68;;;3.47;;
20945;SDS011;10632;51.276;7.116;2023-11-21T10:47:35;22.80;;;3.80;;
20945;SDS011;10632;51.276;7.116;2023-11-21T10:50:05;14.30;;;3.40;;
20945;SDS011;10632;51.276;7.116;2023-11-21T10:52:36;12.27;;;3.35;;
20945;SDS011;10632;51.276;7.116;2023-11-21T10:55:08;14.27;;;3.25;;
20945;SDS011;10632;51.276;7.116;2023-11-21T10:57:44;15.35;;;4.53;;
20945;SDS011;10632;51.276;7.116;2023-11-21T11:00:14;15.93;;;4.32;;
20945;SDS011;10632;51.276;7.116;2023-11-21T11:02:45;12.20;;;3.28;;
20945;SDS011;10632;51.276;7.116;2023-11-21T11:05:14;15.50;;;2.60;;
20945;SDS011;10632;51.276;7.116;2023-11-21T11:07:45;18.35;;;3.83;;
20945;SDS011;10632;51.276;7.116;2023-11-21T11:10:17;11.27;;;3.40;;
20945;SDS011;10632;51.276;7.116;2023-11-21T11:12:49;10.55;;;3.17;;
20945;SDS011;10632;51.276;7.116;2023-11-21T11:15:21;13.50;;;4.00;;
20945;SDS011;10632;51.276;7.116;2023-11-21T11:17:48;13.63;;;3.03;;
20945;SDS011;10632;51.276;7.116;2023-11-21T11:20:16;14.48;;;4.13;;
20945;SDS011;10632;51.276;7.116;2023-11-21T11:22:48;11.57;;;2.63;;
20945;SDS011;10632;51.276;7.116;2023-11-21T11:25:32;11.02;;;3.03;;
20945;SDS011;10632;51.276;7.116;2023-11-21T11:28:14;13.77;;;3.33;;
20945;SDS011;10632;51.276;7.116;2023-11-21T11:30:47;10.40;;;2.80;;
20945;SDS011;10632;51.276;7.116;2023-11-21T11:33:26;10.52;;;3.30;;
20945;SDS011;10632;51.276;7.116;2023-11-21T11:36:02;13.73;;;3.88;;
20945;SDS011;10632;51.276;7.116;2023-11-21T11:38:33;13.38;;;3.28;;
20945;SDS011;10632;51.276;7.116;2023-11-21T11:41:01;18.88;;;3.97;;
20945;SDS011;10632;51.276;7.116;2023-11-21T11:43:31;12.13;;;2.97;;
20945;SDS011;10632;51.276;7.116;2023-11-21T11:46:05;21.10;;;3.13;;
20945;SDS011;10632;51.276;7.116;2023-11-21T11:48:34;11.70;;;3.22;;
20945;SDS011;10632;51.276;7.116;2023-11-21T11:51:04;13.32;;;3.58;;
20945;SDS011;10632;51.276;7.116;2023-11-21T11:53:37;16.95;;;4.07;;
20945;SDS011;10632;51.276;7.116;2023-11-21T11:56:19;14.38;;;3.33;;
20945;SDS011;10632;51.276;7.116;2023-11-21T11:58:53;11.23;;;3.13;;
20945;SDS011;10632;51.276;7.116;2023-11-21T12:01:21;14.77;;;3.53;;
20945;SDS011;10632;51.276;7.116;2023-11-21T12:06:56;13.98;;;2.97;;
20945;SDS011;10632;51.276;7.116;2023-11-21T12:09:27;16.77;;;3.70;;
20945;SDS011;10632;51.276;7.116;2023-11-21T12:11:56;15.38;;;3.72;;
20945;SDS011;10632;51.276;7.116;2023-11-21T12:14:24;21.48;;;4.22;;
20945;SDS011;10632;51.276;7.116;2023-11-21T12:16:51;15.48;;;3.85;;
20945;SDS011;10632;51.276;7.116;2023-11-21T12:19:19;16.45;;;4.07;;
20945;SDS011;10632;51.276;7.116;2023-11-21T12:21:47;18.08;;;3.95;;
20945;SDS011;10632;51.276;7.116;2023-11-21T12:24:15;21.02;;;4.60;;
20945;SDS011;10632;51.276;7.116;2023-11-21T12:26:42;26.83;;;4.75;;
20945;SDS011;10632;51.276;7.116;2023-11-21T12:29:10;21.02;;;4.57;;
20945;SDS011;10632;51.276;7.116;2023-11-21T12:31:38;15.57;;;3.75;;
20945;SDS011;10632;51.276;7.116;2023-11-21T12:34:06;17.33;;;3.78;;
20945;SDS011;10632;51.276;7.116;2023-11-21T12:36:36;19.15;;;4.75;;
20945;SDS011;10632;51.276;7.116;2023-11-21T12:39:03;23.85;;;4.75;;
20945;SDS011;10632;51.276;7.116;2023-11-21T12:41:34;30.58;;;5.93;;
20945;SDS011;10632;51.276;7.116;2023-11-21T12:44:01;17.45;;;4.20;;
20945;SDS011;10632;51.276;7.116;2023-11-21T12:46:28;17.70;;;5.15;;
20945;SDS011;10632;51.276;7.116;2023-11-21T12:48:58;20.77;;;4.55;;
20945;SDS011;10632;51.276;7.116;2023-11-21T12:51:25;24.17;;;5.18;;
20945;SDS011;10632;51.276;7.116;2023-11-21T12:53:56;19.45;;;5.15;;
20945;SDS011;10632;51.276;7.116;2023-11-21T12:56:23;18.77;;;4.45;;
20945;SDS011;10632;51.276;7.116;2023-11-21T12:58:53;23.95;;;5.43;;
20945;SDS011;10632;51.276;7.116;2023-11-21T13:01:24;23.20;;;5.10;;
20945;SDS011;10632;51.276;7.116;2023-11-21T13:03:53;29.50;;;5.00;;
20945;SDS011;10632;51.276;7.116;2023-11-21T13:06:21;20.95;;;5.28;;
20945;SDS011;10632;51.276;7.116;2023-11-21T13:08:50;23.23;;;5.43;;
20945;SDS011;10632;51.276;7.116;2023-11-21T13:11:17;23.23;;;5.88;;
20945;SDS011;10632;51.276;7.116;2023-11-21T13:13:46;24.58;;;5.35;;
20945;SDS011;10632;51.276;7.116;2023-11-21T13:16:14;22.80;;;5.38;;
20945;SDS011;10632;51.276;7.116;2023-11-21T13:18:41;25.83;;;5.53;;
20945;SDS011;10632;51.276;7.116;2023-11-21T13:21:09;27.85;;;6.13;;
20945;SDS011;10632;51.276;7.116;2023-11-21T13:23:40;21.23;;;5.05;;
20945;SDS011;10632;51.276;7.116;2023-11-21T13:26:08;29.35;;;4.78;;
20945;SDS011;10632;51.276;7.116;2023-11-21T13:28:36;30.20;;;6.07;;
20945;SDS011;10632;51.276;7.116;2023-11-21T13:31:05;26.65;;;5.50;;
20945;SDS011;10632;51.276;7.116;2023-11-21T13:33:45;24.73;;;5.28;;
20945;SDS011;10632;51.276;7.116;2023-11-21T13:36:20;28.15;;;6.72;;
20945;SDS011;10632;51.276;7.116;2023-11-21T13:38:49;18.92;;;5.68;;
20945;SDS011;10632;51.276;7.116;2023-11-21T13:41:17;29.23;;;6.75;;
20945;SDS011;10632;51.276;7.116;2023-11-21T13:43:44;19.77;;;5.22;;
20945;SDS011;10632;51.276;7.116;2023-11-21T13:46:17;16.77;;;5.60;;
20945;SDS011;10632;51.276;7.116;2023-11-21T13:48:47;18.45;;;5.80;;
20945;SDS011;10632;51.276;7.116;2023-11-21T13:51:16;18.95;;;4.85;;
20945;SDS011;10632;51.276;7.116;2023-11-21T13:53:43;17.63;;;5.05;;
20945;SDS011;10632;51.276;7.116;2023-11-21T13:56:13;17.55;;;5.18;;
20945;SDS011;10632;51.276;7.116;2023-11-21T13:58:44;18.00;;;5.13;;
20945;SDS011;10632;51.276;7.116;2023-11-21T14:01:15;19.23;;;5.13;;
20945;SDS011;10632;51.276;7.116;2023-11-21T14:04:07;14.60;;;4.43;;
20945;SDS011;10632;51.276;7.116;2023-11-21T14:06:44;14.90;;;3.88;;
20945;SDS011;10632;51.276;7.116;2023-11-21T14:09:13;14.07;;;4.15;;
20945;SDS011;10632;51.276;7.116;2023-11-21T14:11:49;12.43;;;3.45;;
20945;SDS011;10632;51.276;7.116;2023-11-21T14:14:18;9.35;;;3.00;;
20945;SDS011;10632;51.276;7.116;2023-11-21T14:16:45;9.65;;;2.83;;
20945;SDS011;10632;51.276;7.116;2023-11-21T14:19:12;6.82;;;2.58;;
20945;SDS011;10632;51.276;7.116;2023-11-21T14:21:42;10.10;;;2.95;;
20945;SDS011;10632;51.276;7.116;2023-11-21T14:24:10;9.05;;;2.65;;
20945;SDS011;10632;51.276;7.116;2023-11-21T14:26:39;8.60;;;2.15;;
20945;SDS011;10632;51.276;7.116;2023-11-21T14:29:09;7.55;;;2.38;;
20945;SDS011;10632;51.276;7.116;2023-11-21T14:31:39;9.32;;;2.45;;
20945;SDS011;10632;51.276;7.116;2023-11-21T14:34:07;8.65;;;2.70;;
20945;SDS011;10632;51.276;7.116;2023-11-21T14:36:34;11.75;;;3.10;;
20945;SDS011;10632;51.276;7.116;2023-11-21T14:39:01;7.57;;;2.72;;
20945;SDS011;10632;51.276;7.116;2023-11-21T14:41:32;5.88;;;2.10;;
20945;SDS011;10632;51.276;7.116;2023-11-21T14:44:00;8.50;;;2.08;;
20945;SDS011;10632;51.276;7.116;2023-11-21T14:46:29;7.55;;;2.65;;
20945;SDS011;10632;51.276;7.116;2023-11-21T14:48:56;8.88;;;3.47;;
20945;SDS011;10632;51.276;7.116;2023-11-21T14:51:38;12.52;;;3.67;;
20945;SDS011;10632;51.276;7.116;2023-11-21T14:54:24;8.15;;;2.80;;
20945;SDS011;10632;51.276;7.116;2023-11-21T14:57:04;7.05;;;2.50;;
20945;SDS011;10632;51.276;7.116;2023-11-21T14:59:36;11.63;;;3.00;;
20945;SDS011;10632;51.276;7.116;2023-11-21T15:02:08;11.48;;;3.35;;
20945;SDS011;10632;51.276;7.116;2023-11-21T15:04:41;11.43;;;3.60;;
20945;SDS011;10632;51.276;7.116;2023-11-21T15:07:09;9.10;;;2.95;;
20945;SDS011;10632;51.276;7.116;2023-11-21T15:09:37;10.23;;;2.80;;
20945;SDS011;10632;51.276;7.116;2023-11-21T15:12:08;10.63;;;2.75;;
20945;SDS011;10632;51.276;7.116;2023-11-21T15:14:41;7.95;;;3.05;;
20945;SDS011;10632;51.276;7.116;2023-11-21T15:17:11;7.30;;;2.60;;